createdAt,value
2019-02-23T00:20:08.268Z,99660.22
2019-02-23T00:22:47.896Z,99694.28
2019-02-23T00:25:25.912Z,99648.09
2019-02-23T02:43:13.157Z,100230.56
2019-02-23T02:46:02.427Z,100237.80
2019-02-23T02:49:09.518Z,100261.53
2019-02-23T02:51:58.843Z,100263.84
2019-02-23T02:55:05.983Z,100278.13
2019-02-23T02:58:14.428Z,100297.41
2019-02-23T03:01:21.533Z,100315.41
2019-02-23T03:04:29.968Z,100328.98
2019-02-23T03:10:16.048Z,100349.31
2019-02-23T03:12:44.581Z,100365.12
2019-02-23T03:15:13.218Z,100381.04
2019-02-23T03:17:41.775Z,100387.06
2019-02-23T03:20:10.427Z,100396.80
2019-02-23T03:22:38.985Z,100398.23
2019-02-23T03:25:29.050Z,100397.59
2019-02-23T03:27:57.543Z,100412.06
2019-02-23T03:30:26.179Z,100416.76
2019-02-23T03:32:54.717Z,100423.86
2019-02-23T03:35:23.276Z,100423.45
2019-02-23T03:37:51.870Z,100425.87
2019-02-23T03:40:20.543Z,100431.35
2019-02-23T05:17:47.724Z,100647.69
2019-02-23T06:16:51.017Z,100770.52
2019-02-23T06:23:09.832Z,100782.86
2019-02-23T06:29:45.505Z,100796.95
2019-02-23T07:45:58.920Z,100949.88
2019-02-23T07:52:26.617Z,100952.80
2019-02-23T07:59:04.116Z,100977.78
2019-02-23T08:02:15.222Z,100983.72
2019-02-23T09:55:59.782Z,101138.30
2019-02-23T09:58:49.209Z,101138.70
2019-02-23T10:05:30.166Z,101148.44
2019-02-23T10:08:19.568Z,101136.48
2019-02-23T10:11:32.679Z,101148.08
2019-02-23T10:14:20.930Z,101151.57
2019-02-23T10:17:25.539Z,101150.14
2019-02-23T10:20:13.750Z,101149.52
2019-02-23T10:23:22.089Z,101141.30
2019-02-23T10:26:20.731Z,101140.57
2019-02-23T10:29:26.980Z,101145.77
2019-02-23T10:32:14.865Z,101151.73
2019-02-23T10:35:19.372Z,101153.22
2019-02-23T10:38:07.230Z,101147.47
2019-02-23T10:41:12.009Z,101153.14
2019-02-23T10:44:00.115Z,101155.30
2019-02-23T10:47:04.729Z,101156.57
2019-02-23T10:49:52.731Z,101149.56
2019-02-23T10:52:57.199Z,101153.31
2019-02-23T10:55:45.151Z,101153.28
2019-02-23T10:58:50.048Z,101156.67
2019-02-23T11:01:38.123Z,101159.56
2019-02-23T11:04:47.692Z,101142.36
2019-02-23T11:07:41.359Z,101158.15
2019-02-23T11:10:46.015Z,101148.34
2019-02-23T11:13:35.375Z,101156.12
2019-02-23T11:16:40.069Z,101152.92
2019-02-23T11:19:28.318Z,101153.19
2019-02-23T11:22:33.281Z,101153.27
2019-02-23T11:25:21.020Z,101155.50
2019-02-23T11:28:25.511Z,101152.48
2019-02-23T11:31:13.330Z,101150.30
2019-02-23T11:34:18.575Z,101142.02
2019-02-23T11:36:47.219Z,101151.98
2019-02-23T11:39:16.059Z,101144.61
2019-02-23T11:41:44.697Z,101140.23
2019-02-23T11:44:13.311Z,101135.81
2019-02-23T11:46:59.897Z,101152.66
2019-02-23T11:49:16.538Z,101154.61
2019-02-23T11:51:45.256Z,101158.25
2019-02-23T11:54:13.867Z,101160.95
2019-02-23T11:56:42.358Z,101157.38
2019-02-23T11:59:10.999Z,101155.02
2019-02-23T12:01:39.911Z,101167.79
2019-02-23T12:04:08.470Z,101163.83
2019-02-23T12:06:37.066Z,101163.50
2019-02-23T12:09:07.182Z,101159.41
2019-02-23T12:11:35.793Z,101164.40
2019-02-23T12:14:04.413Z,101159.33
2019-02-23T12:19:13.046Z,101161.23
2019-02-23T12:21:41.645Z,101160.75
2019-02-23T12:24:10.954Z,101158.18
2019-02-23T12:26:43.446Z,101161.63
2019-02-23T12:29:12.078Z,101168.91
2019-02-23T12:31:40.754Z,101171.33
2019-02-23T12:34:09.399Z,101170.98
2019-02-23T12:36:38.071Z,101170.40
2019-02-23T12:39:06.819Z,101178.98
2019-02-23T12:41:35.422Z,101175.46
2019-02-23T12:44:08.995Z,101182.52
2019-02-23T12:46:37.691Z,101186.04
2019-02-23T12:49:06.436Z,101185.14
2019-02-23T12:51:38.910Z,101186.60
2019-02-23T12:54:16.434Z,101183.27
2019-02-23T12:56:38.115Z,101184.21
2019-02-23T12:59:06.828Z,101192.54
2019-02-23T13:01:35.376Z,101197.58
2019-02-23T13:04:05.544Z,101200.35
2019-02-23T13:06:42.494Z,101199.24
2019-02-23T13:09:20.752Z,101202.38
2019-02-23T13:11:53.761Z,101197.82
2019-02-23T13:14:45.011Z,101212.22
2019-02-23T13:17:19.837Z,101212.75
2019-02-23T13:20:00.355Z,101207.93
2019-02-23T13:22:44.653Z,101209.99
2019-02-23T13:25:34.626Z,101216.03
2019-02-23T13:28:18.360Z,101220.86
2019-02-23T13:31:11.014Z,101212.36
2019-02-23T13:34:06.628Z,101219.69
2019-02-23T13:36:53.194Z,101226.66
2019-02-23T13:39:42.693Z,101224.49
2019-02-23T13:42:30.455Z,101226.92
2019-02-23T13:45:10.614Z,101235.17
2019-02-23T13:48:03.218Z,101227.13
2019-02-23T13:50:34.816Z,101228.62
2019-02-23T13:53:06.381Z,101229.69
2019-02-23T13:55:44.092Z,101234.96
2019-02-23T13:58:24.061Z,101238.48
2019-02-23T14:00:58.312Z,101239.25
2019-02-23T14:03:50.998Z,101244.27
2019-02-23T14:06:34.168Z,101243.20
2019-02-23T14:09:29.829Z,101244.23
2019-02-23T14:12:31.761Z,101243.70
2019-02-23T14:15:21.322Z,101248.01
2019-02-23T14:17:58.403Z,101248.33
2019-02-23T14:20:52.335Z,101245.52
2019-02-23T14:23:35.786Z,101252.17
2019-02-23T14:26:31.506Z,101252.83
2019-02-23T14:29:20.953Z,101252.17
2019-02-23T14:31:58.569Z,101258.92
2019-02-23T14:34:32.945Z,101261.94
2019-02-23T14:37:28.423Z,101257.67
2019-02-23T14:40:28.824Z,101262.02
2019-02-23T14:43:12.052Z,101263.69
2019-02-23T14:45:48.114Z,101265.89
2019-02-23T14:48:34.714Z,101268.50
2019-02-23T14:51:21.574Z,101266.89
2019-02-23T14:54:11.296Z,101269.90
2019-02-23T14:57:03.873Z,101276.55
2019-02-23T14:59:50.519Z,101277.20
2019-02-23T15:02:24.911Z,101279.09
2019-02-23T15:05:19.564Z,101284.96
2019-02-23T15:08:18.126Z,101294.30
2019-02-23T15:11:12.282Z,101289.48
2019-02-23T15:14:01.715Z,101295.69
2019-02-23T15:20:40.520Z,101310.31
2019-02-23T15:48:12.967Z,101351.22
2019-02-23T15:51:06.014Z,101347.23
2019-02-23T16:10:58.121Z,101389.28
2019-02-23T16:20:30.578Z,101407.49
2019-02-23T22:09:41.301Z,101583.86
2019-02-23T22:12:30.622Z,101588.88
2019-02-23T22:18:40.633Z,101592.38
2019-02-23T22:21:46.040Z,101589.32
2019-02-23T22:28:05.186Z,101585.48
2019-02-23T22:44:28.814Z,101582.28
2019-02-23T23:26:57.966Z,101568.44
2019-02-23T23:58:22.174Z,101591.73
